createdAt,value
2018-09-24T00:02:27.799Z,99.90
2018-09-24T00:04:56.318Z,99.90
2018-09-24T00:07:24.762Z,99.90
2018-09-24T00:09:53.254Z,99.90
2018-09-24T00:12:21.751Z,99.90
2018-09-24T00:14:50.192Z,99.90
2018-09-24T00:17:18.656Z,99.90
2018-09-24T00:19:47.653Z,99.90
2018-09-24T00:22:16.081Z,99.90
2018-09-24T00:24:44.601Z,99.90
2018-09-24T00:27:13.055Z,99.90
2018-09-24T00:29:41.533Z,99.90
2018-09-24T00:32:09.977Z,99.90
2018-09-24T00:34:38.415Z,99.90
2018-09-24T00:37:06.899Z,99.90
2018-09-24T00:39:35.392Z,99.90
2018-09-24T00:42:03.994Z,99.90
2018-09-24T00:44:32.419Z,99.90
2018-09-24T00:47:00.845Z,99.90
2018-09-24T00:49:29.284Z,99.90
2018-09-24T00:51:57.732Z,99.90
2018-09-24T00:54:26.222Z,99.90
2018-09-24T00:56:54.648Z,99.90
2018-09-24T00:59:23.122Z,99.90
2018-09-24T01:01:52.516Z,99.90
2018-09-24T01:04:21.098Z,99.90
2018-09-24T01:06:49.593Z,99.90
2018-09-24T01:09:18.046Z,99.90
2018-09-24T01:11:46.508Z,99.90
2018-09-24T01:14:14.966Z,99.90
2018-09-24T01:16:43.510Z,99.90
2018-09-24T01:19:11.961Z,99.90
2018-09-24T01:21:40.376Z,99.90
2018-09-24T01:24:08.780Z,99.90
2018-09-24T01:26:37.357Z,99.90
2018-09-24T01:29:05.983Z,99.90
2018-09-24T01:31:34.755Z,99.90
2018-09-24T01:34:03.243Z,99.90
2018-09-24T01:36:31.687Z,99.90
2018-09-24T01:39:00.595Z,99.90
2018-09-24T01:41:29.072Z,99.90
2018-09-24T01:43:57.525Z,99.90
2018-09-24T01:46:26.017Z,99.90
2018-09-24T01:48:54.461Z,99.90
2018-09-24T01:51:23.667Z,99.90
2018-09-24T01:53:52.160Z,99.90
2018-09-24T01:56:20.622Z,99.90
2018-09-24T01:58:49.082Z,99.90
2018-09-24T02:01:17.840Z,99.90
2018-09-24T02:03:46.298Z,99.90
2018-09-24T02:06:14.830Z,99.90
2018-09-24T02:08:44.585Z,99.90
2018-09-24T02:11:13.386Z,99.90
2018-09-24T02:13:50.316Z,99.90
2018-09-24T02:16:19.603Z,99.90
2018-09-24T02:18:48.768Z,99.90
2018-09-24T02:21:17.557Z,99.90
2018-09-24T02:23:46.051Z,99.90
2018-09-24T02:26:14.512Z,99.90
2018-09-24T02:28:42.960Z,99.90
2018-09-24T02:31:11.421Z,99.90
2018-09-24T02:33:39.921Z,99.90
2018-09-24T02:36:08.482Z,99.90
2018-09-24T02:38:38.813Z,99.90
2018-09-24T02:41:07.359Z,99.90
2018-09-24T02:43:35.801Z,99.90
2018-09-24T02:46:04.302Z,99.90
2018-09-24T02:48:33.383Z,99.90
2018-09-24T02:51:01.838Z,99.90
2018-09-24T02:53:36.679Z,99.90
2018-09-24T02:56:05.301Z,99.90
2018-09-24T02:58:33.755Z,99.90
2018-09-24T03:01:02.205Z,99.90
2018-09-24T03:03:30.735Z,99.90
2018-09-24T03:06:01.694Z,99.90
2018-09-24T03:08:30.172Z,99.90
2018-09-24T03:11:04.007Z,99.90
2018-09-24T03:13:32.624Z,99.90
2018-09-24T03:16:01.072Z,99.90
2018-09-24T03:18:29.535Z,99.90
2018-09-24T03:20:58.061Z,99.90
2018-09-24T03:23:26.604Z,99.90
2018-09-24T03:25:55.064Z,99.90
2018-09-24T03:28:23.517Z,99.90
2018-09-24T03:30:52.738Z,99.90
2018-09-24T03:33:21.190Z,99.90
2018-09-24T03:35:49.751Z,99.90
2018-09-24T03:38:18.224Z,99.90
2018-09-24T03:40:46.693Z,99.90
2018-09-24T03:43:15.198Z,99.90
2018-09-24T03:45:43.651Z,99.90
2018-09-24T03:48:12.399Z,99.90
2018-09-24T03:50:40.834Z,99.90
2018-09-24T03:53:09.314Z,99.90
2018-09-24T03:55:37.771Z,99.90
2018-09-24T03:58:06.499Z,99.90
2018-09-24T04:00:34.998Z,99.90
2018-09-24T04:03:03.676Z,99.90
2018-09-24T04:05:37.517Z,99.90
2018-09-24T04:08:11.319Z,99.90
2018-09-24T04:10:45.201Z,99.90
2018-09-24T04:13:18.920Z,99.90
2018-09-24T04:15:52.892Z,99.90
2018-09-24T04:18:26.634Z,99.90
2018-09-24T04:21:00.289Z,99.90
2018-09-24T04:23:34.279Z,99.90
2018-09-24T04:26:08.198Z,99.90
2018-09-24T04:28:41.897Z,99.90
2018-09-24T04:31:15.915Z,99.90
2018-09-24T04:33:49.652Z,99.90
2018-09-24T04:36:23.545Z,99.90
2018-09-24T04:38:57.312Z,99.90
2018-09-24T04:41:31.148Z,99.90
2018-09-24T04:44:04.829Z,99.90
2018-09-24T04:46:38.462Z,99.90
2018-09-24T04:49:12.860Z,99.90
2018-09-24T04:51:46.699Z,99.90
2018-09-24T04:54:20.455Z,99.90
2018-09-24T04:56:54.289Z,99.90
2018-09-24T04:59:28.031Z,99.90
2018-09-24T05:02:01.889Z,99.90
2018-09-24T05:04:35.635Z,99.90
2018-09-24T05:07:09.497Z,99.90
2018-09-24T05:09:43.171Z,99.90
2018-09-24T05:12:17.139Z,99.90
2018-09-24T05:14:51.038Z,99.90
2018-09-24T05:17:24.949Z,99.90
2018-09-24T05:19:58.752Z,99.90
2018-09-24T05:22:32.430Z,99.90
2018-09-24T05:25:06.341Z,99.90
2018-09-24T05:27:40.053Z,99.90
2018-09-24T05:30:13.951Z,99.90
2018-09-24T05:32:48.003Z,99.90
2018-09-24T05:35:22.677Z,99.90
2018-09-24T05:37:56.562Z,99.90
2018-09-24T05:40:30.292Z,99.90
2018-09-24T05:43:04.105Z,99.90
2018-09-24T05:45:38.514Z,99.90
2018-09-24T05:48:12.228Z,99.90
2018-09-24T05:50:46.042Z,99.90
2018-09-24T05:53:20.095Z,99.90
2018-09-24T05:55:53.843Z,99.90
2018-09-24T05:58:27.697Z,99.90
2018-09-24T06:01:01.438Z,99.90
2018-09-24T06:03:35.053Z,99.90
2018-09-24T06:06:08.761Z,99.90
2018-09-24T06:08:43.629Z,99.90
2018-09-24T06:11:17.409Z,99.90
2018-09-24T06:13:51.088Z,99.90
2018-09-24T06:16:24.952Z,99.90
2018-09-24T06:18:58.743Z,99.90
2018-09-24T06:21:32.468Z,99.90
2018-09-24T06:24:06.249Z,99.90
2018-09-24T06:26:40.078Z,99.90
2018-09-24T06:29:13.846Z,99.90
2018-09-24T06:31:47.827Z,99.90
2018-09-24T06:34:21.889Z,99.90
2018-09-24T06:36:55.837Z,99.90
2018-09-24T06:39:29.603Z,99.90
2018-09-24T06:42:03.547Z,99.90
2018-09-24T06:44:37.292Z,99.90
2018-09-24T06:47:11.251Z,99.90
2018-09-24T06:49:44.988Z,99.90
2018-09-24T06:52:18.767Z,99.90
2018-09-24T06:54:52.551Z,99.90
2018-09-24T06:57:26.283Z,99.90
2018-09-24T07:00:00.049Z,99.90
2018-09-24T07:02:33.886Z,99.90
2018-09-24T07:05:07.659Z,99.90
2018-09-24T07:07:41.508Z,99.90
2018-09-24T07:10:16.038Z,99.90
2018-09-24T07:12:49.850Z,99.90
2018-09-24T07:15:23.772Z,99.90
2018-09-24T07:17:57.535Z,99.90
2018-09-24T07:20:31.356Z,99.90
2018-09-24T07:23:05.134Z,99.90
2018-09-24T07:25:38.870Z,99.90
2018-09-24T07:28:13.372Z,99.90
2018-09-24T07:30:47.152Z,99.90
2018-09-24T07:33:21.042Z,99.90
2018-09-24T07:35:54.896Z,99.90
2018-09-24T07:38:28.819Z,99.90
2018-09-24T07:41:02.626Z,99.90
2018-09-24T07:43:36.376Z,99.90
2018-09-24T07:46:10.252Z,99.90
2018-09-24T07:48:43.986Z,99.90
2018-09-24T07:51:17.806Z,99.90
2018-09-24T07:53:52.294Z,99.90
2018-09-24T07:56:26.085Z,99.90
2018-09-24T07:58:59.852Z,99.90
2018-09-24T08:01:34.054Z,99.90
2018-09-24T08:04:07.786Z,99.90
2018-09-24T08:06:41.677Z,99.90
2018-09-24T08:09:15.523Z,99.90
2018-09-24T08:11:49.285Z,99.90
2018-09-24T08:14:22.969Z,99.90
2018-09-24T08:16:56.609Z,99.90
2018-09-24T08:19:30.765Z,99.90
2018-09-24T08:22:04.666Z,99.90
2018-09-24T08:24:38.350Z,99.90
2018-09-24T08:27:12.173Z,99.90
2018-09-24T08:29:45.882Z,99.90
2018-09-24T08:32:19.570Z,99.90
2018-09-24T08:34:53.384Z,99.90
2018-09-24T08:37:27.153Z,99.90
2018-09-24T08:40:00.895Z,99.90
2018-09-24T08:42:34.723Z,99.90
2018-09-24T08:45:08.477Z,99.90
2018-09-24T08:47:42.424Z,99.90
2018-09-24T08:50:16.261Z,99.90
2018-09-24T08:52:50.107Z,99.90
2018-09-24T08:55:23.934Z,99.90
2018-09-24T08:57:57.745Z,99.90
2018-09-24T09:00:31.453Z,99.90
2018-09-24T09:03:05.179Z,99.90
2018-09-24T09:05:39.079Z,99.90
2018-09-24T09:08:12.864Z,99.90
2018-09-24T09:10:46.539Z,99.90
2018-09-24T09:13:20.367Z,99.90
2018-09-24T09:15:54.338Z,99.90
2018-09-24T09:18:28.190Z,99.90
2018-09-24T09:21:01.896Z,99.90
2018-09-24T09:23:35.615Z,99.90
2018-09-24T09:26:09.558Z,99.90
2018-09-24T09:28:43.272Z,99.90
2018-09-24T09:31:17.034Z,99.90
2018-09-24T09:33:50.948Z,99.90
2018-09-24T09:36:24.648Z,99.90
2018-09-24T09:38:58.290Z,99.90
2018-09-24T09:41:32.171Z,99.90
2018-09-24T09:44:06.203Z,99.90
2018-09-24T09:46:40.122Z,99.90
2018-09-24T09:49:13.894Z,99.90
2018-09-24T09:51:48.007Z,99.90
2018-09-24T09:54:21.909Z,99.90
2018-09-24T09:56:55.684Z,99.90
2018-09-24T09:59:29.529Z,99.90
2018-09-24T10:02:03.293Z,99.90
2018-09-24T10:04:37.018Z,99.90
2018-09-24T10:07:10.845Z,99.90
2018-09-24T10:09:44.616Z,99.90
2018-09-24T10:12:18.479Z,99.90
2018-09-24T10:14:52.489Z,99.90
2018-09-24T10:17:26.275Z,99.90
2018-09-24T10:19:59.976Z,99.90
2018-09-24T10:22:33.919Z,99.90
2018-09-24T10:25:07.480Z,99.00
2018-09-24T10:27:41.414Z,98.70
2018-09-24T10:30:15.230Z,98.80
2018-09-24T10:32:49.144Z,99.10
2018-09-24T10:35:22.794Z,99.60
2018-09-24T10:37:56.623Z,99.90
2018-09-24T10:40:30.425Z,99.90
2018-09-24T10:43:04.229Z,99.90
2018-09-24T10:45:38.133Z,99.90
2018-09-24T10:48:12.226Z,97.50
2018-09-24T10:50:45.998Z,96.80
2018-09-24T10:53:19.758Z,96.00
2018-09-24T10:55:53.579Z,96.60
2018-09-24T10:58:27.468Z,97.60
2018-09-24T11:01:01.341Z,98.30
2018-09-24T11:03:35.101Z,98.10
2018-09-24T11:06:08.850Z,98.00
2018-09-24T11:08:42.792Z,97.30
2018-09-24T11:11:16.447Z,96.00
2018-09-24T11:13:50.361Z,96.40
2018-09-24T11:16:24.310Z,96.40
2018-09-24T11:18:57.993Z,96.50
2018-09-24T11:21:31.761Z,97.00
2018-09-24T11:24:05.561Z,96.50
2018-09-24T11:26:39.431Z,94.60
2018-09-24T11:29:13.190Z,95.30
2018-09-24T11:31:46.835Z,93.80
2018-09-24T11:34:20.609Z,92.80
2018-09-24T11:37:02.159Z,92.10
2018-09-24T11:39:36.023Z,91.00
2018-09-24T11:42:10.221Z,91.90
2018-09-24T11:44:44.127Z,90.80
2018-09-24T11:47:18.040Z,88.00
2018-09-24T11:49:51.840Z,85.50
2018-09-24T11:52:25.649Z,85.90
2018-09-24T11:54:59.367Z,85.00
2018-09-24T11:57:33.163Z,86.10
2018-09-24T12:00:06.821Z,86.10
2018-09-24T12:02:40.595Z,86.50
2018-09-24T12:05:14.471Z,86.40
2018-09-24T12:07:48.399Z,89.10
2018-09-24T12:10:22.141Z,88.90
2018-09-24T12:12:55.850Z,89.70
2018-09-24T12:15:29.891Z,89.20
2018-09-24T12:18:03.884Z,89.60
2018-09-24T12:20:37.718Z,90.90
2018-09-24T12:23:11.391Z,88.90
2018-09-24T12:25:45.152Z,88.40
2018-09-24T12:28:19.005Z,87.10
2018-09-24T12:30:52.900Z,87.20
2018-09-24T12:33:26.640Z,86.70
2018-09-24T12:36:00.572Z,87.40
2018-09-24T12:38:34.495Z,89.60
2018-09-24T12:41:08.385Z,88.30
2018-09-24T12:43:42.149Z,86.90
2018-09-24T12:46:15.895Z,80.10
2018-09-24T12:48:49.703Z,81.00
2018-09-24T12:51:23.643Z,82.30
2018-09-24T12:53:57.436Z,80.80
2018-09-24T12:56:31.259Z,80.50
2018-09-24T12:59:05.100Z,80.10
2018-09-24T13:01:38.922Z,81.30
2018-09-24T13:04:12.844Z,84.10
2018-09-24T13:06:46.869Z,83.30
2018-09-24T13:09:20.864Z,84.30
2018-09-24T13:11:54.706Z,81.80
2018-09-24T13:14:28.491Z,82.20
2018-09-24T13:17:02.420Z,83.90
2018-09-24T13:19:36.041Z,80.50
2018-09-24T13:22:10.041Z,80.20
2018-09-24T13:24:43.847Z,79.60
2018-09-24T13:27:17.867Z,80.10
2018-09-24T13:29:51.490Z,82.40
2018-09-24T13:32:25.323Z,81.40
2018-09-24T13:34:59.311Z,83.20
2018-09-24T13:37:33.962Z,84.70
2018-09-24T13:40:07.755Z,79.70
2018-09-24T13:42:41.624Z,78.40
2018-09-24T13:45:15.401Z,78.40
2018-09-24T13:47:49.181Z,77.50
2018-09-24T13:50:23.152Z,76.20
2018-09-24T13:52:57.015Z,76.20
2018-09-24T13:55:30.957Z,75.70
2018-09-24T13:58:04.819Z,74.60
2018-09-24T14:00:38.658Z,74.40
2018-09-24T14:03:12.862Z,75.10
2018-09-24T14:05:46.522Z,74.70
2018-09-24T14:08:20.520Z,75.40
2018-09-24T14:10:54.405Z,73.80
2018-09-24T14:13:28.288Z,74.20
2018-09-24T14:16:02.211Z,75.10
2018-09-24T14:18:35.946Z,76.10
2018-09-24T14:21:09.712Z,76.90
2018-09-24T14:23:43.619Z,77.60
2018-09-24T14:26:17.527Z,77.30
2018-09-24T14:28:51.429Z,77.10
2018-09-24T14:31:25.156Z,76.50
2018-09-24T14:33:59.165Z,77.20
2018-09-24T14:36:33.597Z,77.20
2018-09-24T14:39:07.409Z,77.70
2018-09-24T14:41:41.373Z,78.10
2018-09-24T14:44:15.130Z,79.20
2018-09-24T14:46:49.694Z,78.90
2018-09-24T14:49:23.536Z,79.60
2018-09-24T14:51:57.336Z,78.10
2018-09-24T14:54:30.987Z,77.10
2018-09-24T14:57:04.935Z,77.00
2018-09-24T14:59:38.926Z,76.60
2018-09-24T15:02:12.826Z,77.70
2018-09-24T15:04:46.806Z,78.20
2018-09-24T15:07:20.793Z,77.90
2018-09-24T15:09:54.518Z,78.40
2018-09-24T15:12:28.569Z,78.60
2018-09-24T15:15:02.440Z,79.00
2018-09-24T15:17:36.177Z,78.90
2018-09-24T15:20:10.211Z,78.80
2018-09-24T15:22:44.171Z,80.00
2018-09-24T15:25:17.874Z,80.40
2018-09-24T15:27:51.582Z,80.70
2018-09-24T15:30:25.539Z,81.40
2018-09-24T15:32:59.558Z,82.40
2018-09-24T15:35:33.509Z,82.40
2018-09-24T15:38:07.187Z,82.70
2018-09-24T15:40:41.191Z,82.60
2018-09-24T15:43:14.931Z,82.50
2018-09-24T15:45:48.980Z,82.90
2018-09-24T15:48:22.940Z,83.80
2018-09-24T15:50:56.732Z,83.50
2018-09-24T15:53:31.181Z,84.80
2018-09-24T15:56:05.109Z,85.30
2018-09-24T15:58:39.636Z,85.10
2018-09-24T16:01:14.305Z,85.30
2018-09-24T16:03:48.227Z,85.00
2018-09-24T16:06:22.082Z,85.30
2018-09-24T16:08:55.858Z,85.40
2018-09-24T16:11:29.779Z,85.40
2018-09-24T16:14:03.663Z,86.00
2018-09-24T16:16:37.587Z,85.20
2018-09-24T16:19:11.481Z,85.80
2018-09-24T16:21:46.201Z,86.30
2018-09-24T16:24:21.163Z,86.90
2018-09-24T16:26:54.981Z,86.40
2018-09-24T16:29:29.753Z,86.50
2018-09-24T16:32:04.090Z,86.50
2018-09-24T16:34:38.665Z,87.50
2018-09-24T16:37:12.812Z,87.50
2018-09-24T16:39:46.913Z,88.10
2018-09-24T16:42:21.395Z,88.70
2018-09-24T16:44:55.583Z,88.40
2018-09-24T16:47:29.473Z,88.90
2018-09-24T16:50:03.335Z,89.50
2018-09-24T16:52:37.288Z,89.30
2018-09-24T16:55:11.162Z,90.10
2018-09-24T16:57:45.174Z,90.20
2018-09-24T17:00:19.346Z,90.80
2018-09-24T17:02:53.188Z,90.80
2018-09-24T17:05:27.934Z,90.90
2018-09-24T17:08:02.840Z,90.90
2018-09-24T17:10:36.755Z,90.90
2018-09-24T17:13:10.679Z,91.10
2018-09-24T17:15:44.541Z,90.40
2018-09-24T17:18:18.499Z,90.40
2018-09-24T17:20:52.499Z,90.50
2018-09-24T17:23:26.308Z,90.30
2018-09-24T17:26:00.280Z,90.20
2018-09-24T17:28:34.199Z,89.90
2018-09-24T17:31:08.186Z,89.70
2018-09-24T17:33:41.985Z,90.00
2018-09-24T17:36:15.695Z,90.60
2018-09-24T17:38:49.523Z,90.70
2018-09-24T17:41:23.468Z,90.70
2018-09-24T17:43:57.265Z,91.10
2018-09-24T17:46:31.084Z,90.40
2018-09-24T17:49:05.235Z,91.10
2018-09-24T17:51:39.231Z,91.40
2018-09-24T17:54:13.336Z,90.90
2018-09-24T17:56:47.397Z,91.10
2018-09-24T17:59:21.323Z,90.70
2018-09-24T18:01:55.282Z,90.90
2018-09-24T18:04:29.353Z,91.30
2018-09-24T18:07:03.412Z,91.10
2018-09-24T18:09:37.649Z,90.80
2018-09-24T18:12:11.757Z,91.10
2018-09-24T18:14:45.530Z,91.20
2018-09-24T18:17:19.921Z,91.30
2018-09-24T18:19:53.970Z,91.50
2018-09-24T18:22:27.958Z,91.50
2018-09-24T18:25:02.079Z,91.90
2018-09-24T18:27:36.800Z,92.10
2018-09-24T18:30:11.170Z,91.90
2018-09-24T18:32:45.409Z,92.10
2018-09-24T18:35:20.751Z,92.40
2018-09-24T18:37:56.120Z,92.60
2018-09-24T18:40:31.481Z,92.30
2018-09-24T18:43:05.678Z,92.10
2018-09-24T18:45:40.512Z,92.30
2018-09-24T18:48:15.280Z,92.10
2018-09-24T18:50:50.182Z,92.20
2018-09-24T18:53:25.068Z,92.20
2018-09-24T18:55:59.832Z,93.20
2018-09-24T18:58:34.943Z,93.70
2018-09-24T19:01:09.505Z,94.00
2018-09-24T19:03:44.988Z,94.70
2018-09-24T19:06:20.057Z,95.30
2018-09-24T19:08:55.140Z,95.80
2018-09-24T19:11:30.729Z,96.20
2018-09-24T19:14:05.365Z,96.60
2018-09-24T19:16:39.897Z,96.90
2018-09-24T19:19:14.689Z,97.20
2018-09-24T19:21:50.534Z,97.40
2018-09-24T19:24:25.295Z,97.50
2018-09-24T19:27:00.111Z,97.60
2018-09-24T19:29:34.906Z,97.80
2018-09-24T19:32:09.413Z,98.10
2018-09-24T19:34:44.342Z,98.20
2018-09-24T19:37:19.361Z,98.40
2018-09-24T19:39:54.282Z,98.60
2018-09-24T19:42:28.836Z,98.90
2018-09-24T19:45:03.685Z,99.40
2018-09-24T19:47:39.222Z,99.60
2018-09-24T19:50:15.012Z,99.90
2018-09-24T19:52:49.542Z,99.90
2018-09-24T19:55:24.290Z,99.90
2018-09-24T19:57:58.656Z,99.90
2018-09-24T20:00:33.314Z,99.90
2018-09-24T20:03:08.940Z,99.90
2018-09-24T20:05:43.381Z,99.90
2018-09-24T20:08:18.055Z,99.90
2018-09-24T20:10:52.419Z,99.90
2018-09-24T20:13:26.742Z,99.90
2018-09-24T20:16:00.850Z,99.90
2018-09-24T20:18:35.181Z,99.90
2018-09-24T20:21:09.334Z,99.90
2018-09-24T20:23:43.631Z,99.90
2018-09-24T20:26:17.704Z,99.90
2018-09-24T20:28:51.857Z,99.90
2018-09-24T20:31:26.457Z,99.90
2018-09-24T20:34:00.529Z,99.90
2018-09-24T20:36:34.582Z,99.90
2018-09-24T20:39:09.345Z,99.90
2018-09-24T20:41:43.468Z,99.90
2018-09-24T20:44:18.375Z,99.90
2018-09-24T20:46:52.275Z,99.90
2018-09-24T20:49:26.371Z,99.90
2018-09-24T20:52:01.261Z,99.90
2018-09-24T20:54:35.284Z,99.90
2018-09-24T20:57:09.263Z,99.90
2018-09-24T20:59:44.041Z,99.90
2018-09-24T21:02:18.067Z,99.90
2018-09-24T21:04:52.685Z,99.90
2018-09-24T21:07:27.142Z,99.90
2018-09-24T21:10:01.061Z,99.90
2018-09-24T21:12:34.973Z,99.90
2018-09-24T21:15:09.435Z,99.90
2018-09-24T21:17:44.171Z,99.90
2018-09-24T21:20:18.003Z,99.90
2018-09-24T21:22:51.830Z,99.90
2018-09-24T21:25:26.275Z,99.90
2018-09-24T21:28:00.591Z,99.90
2018-09-24T21:30:34.517Z,99.90
2018-09-24T21:33:08.260Z,99.90
2018-09-24T21:35:42.083Z,99.90
2018-09-24T21:38:16.022Z,99.90
2018-09-24T21:40:49.886Z,99.90
2018-09-24T21:43:23.729Z,99.90
2018-09-24T21:45:57.640Z,99.90
2018-09-24T21:48:31.508Z,99.90
2018-09-24T21:51:05.362Z,99.90
2018-09-24T21:53:39.114Z,99.90
2018-09-24T21:56:12.951Z,99.90
2018-09-24T21:58:46.747Z,99.90
2018-09-24T22:01:20.663Z,99.90
2018-09-24T22:03:54.716Z,99.90
2018-09-24T22:06:28.591Z,99.90
2018-09-24T22:09:02.477Z,99.90
2018-09-24T22:11:36.451Z,99.90
2018-09-24T22:14:10.321Z,99.90
2018-09-24T22:16:45.874Z,99.90
2018-09-24T22:19:19.770Z,99.90
2018-09-24T22:21:53.580Z,99.90
2018-09-24T22:24:27.266Z,99.90
2018-09-24T22:27:01.185Z,99.90
2018-09-24T22:29:35.046Z,99.90
2018-09-24T22:32:08.906Z,99.90
2018-09-24T22:34:42.842Z,99.90
2018-09-24T22:37:16.555Z,99.90
2018-09-24T22:39:50.289Z,99.90
2018-09-24T22:42:24.016Z,99.90
2018-09-24T22:44:57.852Z,99.90
2018-09-24T22:47:31.579Z,99.90
2018-09-24T22:50:05.241Z,99.90
2018-09-24T22:52:39.225Z,99.90
2018-09-24T22:55:12.997Z,99.90
2018-09-24T22:57:46.753Z,99.90
2018-09-24T23:00:20.521Z,99.90
2018-09-24T23:02:54.197Z,99.90
2018-09-24T23:05:28.097Z,99.90
2018-09-24T23:08:02.047Z,99.90
2018-09-24T23:10:35.804Z,99.90
2018-09-24T23:13:09.537Z,99.90
2018-09-24T23:15:43.429Z,99.90
2018-09-24T23:18:17.235Z,99.90
2018-09-24T23:20:51.534Z,99.90
2018-09-24T23:23:25.349Z,99.90
2018-09-24T23:25:59.295Z,99.90
2018-09-24T23:28:32.975Z,99.90
2018-09-24T23:31:06.745Z,99.90
2018-09-24T23:33:40.351Z,99.90
2018-09-24T23:36:15.085Z,99.90
2018-09-24T23:38:48.942Z,99.90
2018-09-24T23:41:22.678Z,99.90
2018-09-24T23:43:56.410Z,99.90
2018-09-24T23:46:30.292Z,99.90
2018-09-24T23:49:04.166Z,99.90
2018-09-24T23:51:37.912Z,99.90
2018-09-24T23:54:11.749Z,99.90
2018-09-24T23:56:45.523Z,99.90
2018-09-24T23:59:19.254Z,99.90
